sensor_id;sensor_type;location;lat;lon;timestamp;P1;durP1;ratioP1;P2;durP2;ratioP2
22468;SDS011;11401;50.792;4.352;2022-08-01T00:00:12;2.90;;;1.40;;
22468;SDS011;11401;50.792;4.352;2022-08-01T00:02:40;4.07;;;1.63;;
22468;SDS011;11401;50.792;4.352;2022-08-01T00:05:09;1.33;;;1.17;;
22468;SDS011;11401;50.792;4.352;2022-08-01T00:07:37;1.95;;;1.40;;
22468;SDS011;11401;50.792;4.352;2022-08-01T00:10:05;1.85;;;1.27;;
22468;SDS011;11401;50.792;4.352;2022-08-01T00:12:34;2.88;;;1.52;;
22468;SDS011;11401;50.792;4.352;2022-08-01T00:15:01;1.63;;;1.40;;
22468;SDS011;11401;50.792;4.352;2022-08-01T00:17:30;2.72;;;1.30;;
22468;SDS011;11401;50.792;4.352;2022-08-01T00:19:57;2.88;;;1.45;;
22468;SDS011;11401;50.792;4.352;2022-08-01T00:22:24;2.08;;;1.70;;
22468;SDS011;11401;50.792;4.352;2022-08-01T00:24:51;3.05;;;1.77;;
22468;SDS011;11401;50.792;4.352;2022-08-01T00:27:18;2.03;;;1.50;;
22468;SDS011;11401;50.792;4.352;2022-08-01T00:29:45;3.00;;;1.33;;
22468;SDS011;11401;50.792;4.352;2022-08-01T00:32:32;3.00;;;1.42;;
22468;SDS011;11401;50.792;4.352;2022-08-01T00:34:59;1.55;;;1.33;;
22468;SDS011;11401;50.792;4.352;2022-08-01T00:37:27;1.50;;;1.40;;
22468;SDS011;11401;50.792;4.352;2022-08-01T00:39:54;5.43;;;1.60;;
22468;SDS011;11401;50.792;4.352;2022-08-01T00:42:21;1.50;;;1.40;;
22468;SDS011;11401;50.792;4.352;2022-08-01T00:44:48;1.75;;;1.65;;
22468;SDS011;11401;50.792;4.352;2022-08-01T00:47:15;2.13;;;1.42;;
22468;SDS011;11401;50.792;4.352;2022-08-01T00:49:42;2.35;;;1.50;;
22468;SDS011;11401;50.792;4.352;2022-08-01T00:52:09;1.88;;;1.55;;
22468;SDS011;11401;50.792;4.352;2022-08-01T00:54:37;2.10;;;1.38;;
22468;SDS011;11401;50.792;4.352;2022-08-01T00:57:05;1.98;;;1.70;;
22468;SDS011;11401;50.792;4.352;2022-08-01T00:59:36;6.10;;;1.73;;
22468;SDS011;11401;50.792;4.352;2022-08-01T01:02:06;2.20;;;1.38;;
22468;SDS011;11401;50.792;4.352;2022-08-01T01:04:40;2.33;;;1.63;;
22468;SDS011;11401;50.792;4.352;2022-08-01T01:07:19;2.58;;;1.58;;
22468;SDS011;11401;50.792;4.352;2022-08-01T01:10:28;4.53;;;1.55;;
22468;SDS011;11401;50.792;4.352;2022-08-01T01:13:03;2.78;;;1.42;;
22468;SDS011;11401;50.792;4.352;2022-08-01T01:15:34;3.35;;;1.85;;
22468;SDS011;11401;50.792;4.352;2022-08-01T01:20:36;2.10;;;1.45;;
22468;SDS011;11401;50.792;4.352;2022-08-01T01:23:14;2.33;;;1.83;;
22468;SDS011;11401;50.792;4.352;2022-08-01T01:29:21;2.47;;;1.40;;
22468;SDS011;11401;50.792;4.352;2022-08-01T01:32:38;1.95;;;1.75;;
22468;SDS011;11401;50.792;4.352;2022-08-01T01:34:56;3.33;;;1.55;;
22468;SDS011;11401;50.792;4.352;2022-08-01T01:37:24;2.88;;;1.85;;
22468;SDS011;11401;50.792;4.352;2022-08-01T01:39:53;2.00;;;1.83;;
22468;SDS011;11401;50.792;4.352;2022-08-01T01:42:21;3.45;;;2.28;;
22468;SDS011;11401;50.792;4.352;2022-08-01T01:44:51;4.63;;;2.42;;
22468;SDS011;11401;50.792;4.352;2022-08-01T01:47:20;3.38;;;2.70;;
22468;SDS011;11401;50.792;4.352;2022-08-01T01:49:49;5.57;;;2.67;;
22468;SDS011;11401;50.792;4.352;2022-08-01T01:52:17;4.70;;;3.28;;
22468;SDS011;11401;50.792;4.352;2022-08-01T01:54:46;4.95;;;3.30;;
22468;SDS011;11401;50.792;4.352;2022-08-01T01:57:15;8.98;;;3.83;;
22468;SDS011;11401;50.792;4.352;2022-08-01T01:59:44;7.68;;;3.45;;
22468;SDS011;11401;50.792;4.352;2022-08-01T02:02:13;5.20;;;3.38;;
22468;SDS011;11401;50.792;4.352;2022-08-01T02:04:43;7.35;;;3.67;;
22468;SDS011;11401;50.792;4.352;2022-08-01T02:07:21;5.13;;;3.22;;
22468;SDS011;11401;50.792;4.352;2022-08-01T02:09:51;5.35;;;3.63;;
22468;SDS011;11401;50.792;4.352;2022-08-01T02:12:20;5.32;;;3.38;;
22468;SDS011;11401;50.792;4.352;2022-08-01T02:14:51;6.63;;;3.55;;
22468;SDS011;11401;50.792;4.352;2022-08-01T02:17:20;7.10;;;4.15;;
22468;SDS011;11401;50.792;4.352;2022-08-01T02:19:50;5.78;;;3.40;;
22468;SDS011;11401;50.792;4.352;2022-08-01T02:22:18;8.45;;;3.72;;
22468;SDS011;11401;50.792;4.352;2022-08-01T02:24:54;6.88;;;4.28;;
22468;SDS011;11401;50.792;4.352;2022-08-01T02:27:39;8.48;;;4.38;;
22468;SDS011;11401;50.792;4.352;2022-08-01T02:30:12;6.63;;;4.00;;
22468;SDS011;11401;50.792;4.352;2022-08-01T02:32:51;5.88;;;3.97;;
22468;SDS011;11401;50.792;4.352;2022-08-01T02:35:28;7.63;;;4.78;;
22468;SDS011;11401;50.792;4.352;2022-08-01T02:37:58;6.78;;;4.43;;
22468;SDS011;11401;50.792;4.352;2022-08-01T02:40:28;8.20;;;4.60;;
22468;SDS011;11401;50.792;4.352;2022-08-01T02:42:59;5.28;;;3.83;;
22468;SDS011;11401;50.792;4.352;2022-08-01T02:45:28;7.32;;;4.57;;
22468;SDS011;11401;50.792;4.352;2022-08-01T02:47:59;8.68;;;4.65;;
22468;SDS011;11401;50.792;4.352;2022-08-01T02:50:32;6.63;;;5.18;;
22468;SDS011;11401;50.792;4.352;2022-08-01T02:53:00;6.47;;;4.35;;
22468;SDS011;11401;50.792;4.352;2022-08-01T02:55:29;5.95;;;4.63;;
22468;SDS011;11401;50.792;4.352;2022-08-01T02:57:59;8.05;;;4.72;;
22468;SDS011;11401;50.792;4.352;2022-08-01T03:00:28;8.20;;;4.25;;
22468;SDS011;11401;50.792;4.352;2022-08-01T03:02:56;6.22;;;4.30;;
22468;SDS011;11401;50.792;4.352;2022-08-01T03:05:28;7.18;;;4.20;;
22468;SDS011;11401;50.792;4.352;2022-08-01T03:07:58;7.00;;;4.68;;
22468;SDS011;11401;50.792;4.352;2022-08-01T03:10:29;6.70;;;4.15;;
22468;SDS011;11401;50.792;4.352;2022-08-01T03:12:58;7.32;;;4.88;;
22468;SDS011;11401;50.792;4.352;2022-08-01T03:15:27;7.25;;;4.47;;
22468;SDS011;11401;50.792;4.352;2022-08-01T03:17:57;4.93;;;3.53;;
22468;SDS011;11401;50.792;4.352;2022-08-01T03:20:29;7.30;;;4.22;;
22468;SDS011;11401;50.792;4.352;2022-08-01T03:22:59;5.00;;;3.70;;
22468;SDS011;11401;50.792;4.352;2022-08-01T03:25:32;4.82;;;3.70;;
22468;SDS011;11401;50.792;4.352;2022-08-01T03:28:06;4.25;;;3.85;;
22468;SDS011;11401;50.792;4.352;2022-08-01T03:30:35;7.65;;;4.00;;
22468;SDS011;11401;50.792;4.352;2022-08-01T03:33:05;7.88;;;4.78;;
22468;SDS011;11401;50.792;4.352;2022-08-01T03:35:48;5.10;;;3.95;;
22468;SDS011;11401;50.792;4.352;2022-08-01T03:38:21;8.43;;;4.57;;
22468;SDS011;11401;50.792;4.352;2022-08-01T03:40:53;9.38;;;4.63;;
22468;SDS011;11401;50.792;4.352;2022-08-01T03:43:26;6.95;;;3.97;;
22468;SDS011;11401;50.792;4.352;2022-08-01T03:46:04;10.88;;;4.40;;
22468;SDS011;11401;50.792;4.352;2022-08-01T03:48:35;10.50;;;4.47;;
22468;SDS011;11401;50.792;4.352;2022-08-01T03:51:06;8.35;;;4.32;;
22468;SDS011;11401;50.792;4.352;2022-08-01T03:53:35;8.75;;;4.60;;
22468;SDS011;11401;50.792;4.352;2022-08-01T03:56:08;7.85;;;4.72;;
22468;SDS011;11401;50.792;4.352;2022-08-01T03:58:38;8.38;;;4.13;;
22468;SDS011;11401;50.792;4.352;2022-08-01T04:01:06;7.45;;;4.82;;
22468;SDS011;11401;50.792;4.352;2022-08-01T04:03:41;5.72;;;4.07;;
22468;SDS011;11401;50.792;4.352;2022-08-01T04:06:09;7.65;;;4.15;;
22468;SDS011;11401;50.792;4.352;2022-08-01T04:08:37;7.15;;;4.18;;
22468;SDS011;11401;50.792;4.352;2022-08-01T04:11:04;7.28;;;4.10;;
22468;SDS011;11401;50.792;4.352;2022-08-01T04:13:31;8.18;;;5.10;;
22468;SDS011;11401;50.792;4.352;2022-08-01T04:16:02;7.20;;;4.40;;
22468;SDS011;11401;50.792;4.352;2022-08-01T04:18:29;7.25;;;4.70;;
22468;SDS011;11401;50.792;4.352;2022-08-01T04:20:56;5.93;;;4.07;;
22468;SDS011;11401;50.792;4.352;2022-08-01T04:23:24;7.43;;;4.25;;
22468;SDS011;11401;50.792;4.352;2022-08-01T04:25:54;7.13;;;4.22;;
22468;SDS011;11401;50.792;4.352;2022-08-01T04:28:25;6.05;;;4.40;;
22468;SDS011;11401;50.792;4.352;2022-08-01T04:30:53;6.85;;;4.88;;
22468;SDS011;11401;50.792;4.352;2022-08-01T04:33:27;7.85;;;5.28;;
22468;SDS011;11401;50.792;4.352;2022-08-01T04:35:58;8.00;;;4.55;;
22468;SDS011;11401;50.792;4.352;2022-08-01T04:38:30;9.85;;;5.13;;
22468;SDS011;11401;50.792;4.352;2022-08-01T04:41:00;7.07;;;4.38;;
22468;SDS011;11401;50.792;4.352;2022-08-01T04:43:37;8.00;;;4.45;;
22468;SDS011;11401;50.792;4.352;2022-08-01T04:46:05;9.75;;;4.75;;
22468;SDS011;11401;50.792;4.352;2022-08-01T04:48:33;9.20;;;4.57;;
22468;SDS011;11401;50.792;4.352;2022-08-01T04:51:03;8.07;;;4.55;;
22468;SDS011;11401;50.792;4.352;2022-08-01T04:53:30;7.38;;;4.90;;
22468;SDS011;11401;50.792;4.352;2022-08-01T04:55:58;6.90;;;4.55;;
22468;SDS011;11401;50.792;4.352;2022-08-01T04:58:25;6.53;;;4.47;;
22468;SDS011;11401;50.792;4.352;2022-08-01T05:00:52;8.05;;;5.22;;
22468;SDS011;11401;50.792;4.352;2022-08-01T05:03:22;9.15;;;5.18;;
22468;SDS011;11401;50.792;4.352;2022-08-01T05:05:51;7.63;;;5.18;;
22468;SDS011;11401;50.792;4.352;2022-08-01T05:08:18;7.75;;;4.80;;
22468;SDS011;11401;50.792;4.352;2022-08-01T05:10:45;7.68;;;5.38;;
22468;SDS011;11401;50.792;4.352;2022-08-01T05:13:12;9.02;;;5.18;;
22468;SDS011;11401;50.792;4.352;2022-08-01T05:15:39;6.20;;;5.18;;
22468;SDS011;11401;50.792;4.352;2022-08-01T05:18:07;7.25;;;5.85;;
22468;SDS011;11401;50.792;4.352;2022-08-01T05:20:35;9.25;;;5.35;;
22468;SDS011;11401;50.792;4.352;2022-08-01T05:23:03;8.52;;;5.28;;
22468;SDS011;11401;50.792;4.352;2022-08-01T05:25:35;9.82;;;5.78;;
22468;SDS011;11401;50.792;4.352;2022-08-01T05:28:22;9.35;;;6.03;;
22468;SDS011;11401;50.792;4.352;2022-08-01T05:30:49;7.00;;;5.63;;
22468;SDS011;11401;50.792;4.352;2022-08-01T05:33:16;7.47;;;5.95;;
22468;SDS011;11401;50.792;4.352;2022-08-01T05:35:43;7.60;;;6.00;;
22468;SDS011;11401;50.792;4.352;2022-08-01T05:38:14;7.03;;;5.78;;
22468;SDS011;11401;50.792;4.352;2022-08-01T05:40:41;9.48;;;6.18;;
22468;SDS011;11401;50.792;4.352;2022-08-01T05:43:08;7.20;;;5.70;;
22468;SDS011;11401;50.792;4.352;2022-08-01T05:45:35;8.18;;;6.00;;
22468;SDS011;11401;50.792;4.352;2022-08-01T05:48:02;8.50;;;5.85;;
22468;SDS011;11401;50.792;4.352;2022-08-01T05:50:29;9.48;;;5.85;;
22468;SDS011;11401;50.792;4.352;2022-08-01T05:52:56;9.15;;;5.25;;
22468;SDS011;11401;50.792;4.352;2022-08-01T05:55:22;7.07;;;5.03;;
22468;SDS011;11401;50.792;4.352;2022-08-01T05:57:49;9.20;;;5.53;;
22468;SDS011;11401;50.792;4.352;2022-08-01T06:00:16;9.70;;;5.85;;
22468;SDS011;11401;50.792;4.352;2022-08-01T06:02:43;8.68;;;5.05;;
22468;SDS011;11401;50.792;4.352;2022-08-01T06:05:10;6.03;;;5.00;;
22468;SDS011;11401;50.792;4.352;2022-08-01T06:07:38;8.93;;;5.82;;
22468;SDS011;11401;50.792;4.352;2022-08-01T06:10:06;6.35;;;5.15;;
22468;SDS011;11401;50.792;4.352;2022-08-01T06:12:34;9.85;;;5.35;;
22468;SDS011;11401;50.792;4.352;2022-08-01T06:15:02;5.00;;;4.50;;
22468;SDS011;11401;50.792;4.352;2022-08-01T06:17:30;5.85;;;5.28;;
22468;SDS011;11401;50.792;4.352;2022-08-01T06:19:57;6.88;;;5.45;;
22468;SDS011;11401;50.792;4.352;2022-08-01T06:22:24;5.15;;;4.53;;
22468;SDS011;11401;50.792;4.352;2022-08-01T06:24:51;8.20;;;5.28;;
22468;SDS011;11401;50.792;4.352;2022-08-01T06:27:18;7.40;;;5.00;;
22468;SDS011;11401;50.792;4.352;2022-08-01T06:29:47;5.50;;;4.63;;
22468;SDS011;11401;50.792;4.352;2022-08-01T06:32:22;8.35;;;5.43;;
22468;SDS011;11401;50.792;4.352;2022-08-01T06:34:53;6.15;;;4.00;;
22468;SDS011;11401;50.792;4.352;2022-08-01T06:37:21;6.57;;;4.47;;
22468;SDS011;11401;50.792;4.352;2022-08-01T06:39:49;8.40;;;4.40;;
22468;SDS011;11401;50.792;4.352;2022-08-01T06:42:16;4.22;;;3.60;;
22468;SDS011;11401;50.792;4.352;2022-08-01T06:44:44;4.68;;;3.53;;
22468;SDS011;11401;50.792;4.352;2022-08-01T06:47:11;5.00;;;3.83;;
22468;SDS011;11401;50.792;4.352;2022-08-01T06:49:38;5.15;;;3.65;;
22468;SDS011;11401;50.792;4.352;2022-08-01T06:52:05;4.35;;;3.55;;
22468;SDS011;11401;50.792;4.352;2022-08-01T06:54:33;5.82;;;3.45;;
22468;SDS011;11401;50.792;4.352;2022-08-01T06:57:00;5.32;;;3.03;;
22468;SDS011;11401;50.792;4.352;2022-08-01T06:59:27;4.68;;;3.40;;
22468;SDS011;11401;50.792;4.352;2022-08-01T07:01:53;4.20;;;3.35;;
22468;SDS011;11401;50.792;4.352;2022-08-01T07:04:20;4.07;;;3.30;;
22468;SDS011;11401;50.792;4.352;2022-08-01T07:06:48;5.32;;;3.38;;
22468;SDS011;11401;50.792;4.352;2022-08-01T07:09:14;3.50;;;3.10;;
22468;SDS011;11401;50.792;4.352;2022-08-01T07:11:41;4.05;;;3.10;;
22468;SDS011;11401;50.792;4.352;2022-08-01T07:14:08;2.33;;;2.13;;
22468;SDS011;11401;50.792;4.352;2022-08-01T07:16:35;2.45;;;2.25;;
22468;SDS011;11401;50.792;4.352;2022-08-01T07:19:02;3.83;;;2.88;;
22468;SDS011;11401;50.792;4.352;2022-08-01T07:21:29;2.80;;;2.40;;
22468;SDS011;11401;50.792;4.352;2022-08-01T07:24:06;4.03;;;3.63;;
22468;SDS011;11401;50.792;4.352;2022-08-01T07:26:40;3.30;;;3.00;;
22468;SDS011;11401;50.792;4.352;2022-08-01T07:29:20;3.33;;;2.97;;
22468;SDS011;11401;50.792;4.352;2022-08-01T07:31:48;2.78;;;2.28;;
22468;SDS011;11401;50.792;4.352;2022-08-01T07:34:15;2.95;;;2.50;;
22468;SDS011;11401;50.792;4.352;2022-08-01T07:36:42;6.88;;;2.80;;
22468;SDS011;11401;50.792;4.352;2022-08-01T07:39:09;4.68;;;2.92;;
22468;SDS011;11401;50.792;4.352;2022-08-01T07:41:36;3.25;;;2.38;;
22468;SDS011;11401;50.792;4.352;2022-08-01T07:44:22;3.72;;;2.22;;
22468;SDS011;11401;50.792;4.352;2022-08-01T07:46:53;3.28;;;2.53;;
22468;SDS011;11401;50.792;4.352;2022-08-01T07:49:20;3.05;;;2.40;;
22468;SDS011;11401;50.792;4.352;2022-08-01T07:51:48;2.40;;;1.90;;
22468;SDS011;11401;50.792;4.352;2022-08-01T07:54:30;3.08;;;2.30;;
22468;SDS011;11401;50.792;4.352;2022-08-01T07:56:59;2.13;;;1.70;;
22468;SDS011;11401;50.792;4.352;2022-08-01T07:59:27;2.13;;;1.92;;
22468;SDS011;11401;50.792;4.352;2022-08-01T08:01:54;3.17;;;2.10;;
22468;SDS011;11401;50.792;4.352;2022-08-01T08:04:21;2.53;;;2.08;;
22468;SDS011;11401;50.792;4.352;2022-08-01T08:06:48;3.75;;;2.50;;
22468;SDS011;11401;50.792;4.352;2022-08-01T08:09:15;3.88;;;2.40;;
22468;SDS011;11401;50.792;4.352;2022-08-01T08:11:43;3.08;;;2.35;;
22468;SDS011;11401;50.792;4.352;2022-08-01T08:14:13;3.72;;;2.35;;
22468;SDS011;11401;50.792;4.352;2022-08-01T08:16:41;2.63;;;2.42;;
22468;SDS011;11401;50.792;4.352;2022-08-01T08:19:09;3.53;;;2.22;;
22468;SDS011;11401;50.792;4.352;2022-08-01T08:21:36;2.60;;;2.40;;
22468;SDS011;11401;50.792;4.352;2022-08-01T08:24:04;2.60;;;2.40;;
22468;SDS011;11401;50.792;4.352;2022-08-01T08:26:56;2.80;;;2.05;;
22468;SDS011;11401;50.792;4.352;2022-08-01T08:29:24;3.30;;;1.90;;
22468;SDS011;11401;50.792;4.352;2022-08-01T08:31:53;2.28;;;2.08;;
22468;SDS011;11401;50.792;4.352;2022-08-01T08:34:24;2.70;;;2.50;;
22468;SDS011;11401;50.792;4.352;2022-08-01T08:37:03;3.17;;;2.30;;
22468;SDS011;11401;50.792;4.352;2022-08-01T08:39:30;2.75;;;2.30;;
22468;SDS011;11401;50.792;4.352;2022-08-01T08:42:07;2.90;;;2.53;;
22468;SDS011;11401;50.792;4.352;2022-08-01T08:44:36;2.28;;;2.05;;
22468;SDS011;11401;50.792;4.352;2022-08-01T08:47:10;2.58;;;2.35;;
22468;SDS011;11401;50.792;4.352;2022-08-01T08:49:45;3.17;;;1.92;;
22468;SDS011;11401;50.792;4.352;2022-08-01T08:52:14;2.08;;;1.98;;
22468;SDS011;11401;50.792;4.352;2022-08-01T08:54:43;2.33;;;1.83;;
22468;SDS011;11401;50.792;4.352;2022-08-01T08:57:13;3.10;;;2.38;;
22468;SDS011;11401;50.792;4.352;2022-08-01T08:59:42;3.75;;;2.40;;
22468;SDS011;11401;50.792;4.352;2022-08-01T09:02:10;2.55;;;2.08;;
22468;SDS011;11401;50.792;4.352;2022-08-01T09:04:39;3.85;;;2.67;;
22468;SDS011;11401;50.792;4.352;2022-08-01T09:07:06;2.47;;;2.28;;
22468;SDS011;11401;50.792;4.352;2022-08-01T09:09:37;2.80;;;2.58;;
22468;SDS011;11401;50.792;4.352;2022-08-01T09:12:07;4.20;;;2.60;;
22468;SDS011;11401;50.792;4.352;2022-08-01T09:14:34;3.10;;;2.13;;
22468;SDS011;11401;50.792;4.352;2022-08-01T09:17:11;2.28;;;2.13;;
22468;SDS011;11401;50.792;4.352;2022-08-01T09:19:43;5.10;;;2.60;;
22468;SDS011;11401;50.792;4.352;2022-08-01T09:22:14;2.60;;;2.40;;
22468;SDS011;11401;50.792;4.352;2022-08-01T09:25:05;2.05;;;1.90;;
22468;SDS011;11401;50.792;4.352;2022-08-01T09:27:34;4.55;;;2.40;;
22468;SDS011;11401;50.792;4.352;2022-08-01T09:35:36;4.00;;;2.28;;
22468;SDS011;11401;50.792;4.352;2022-08-01T09:38:16;2.60;;;2.35;;
22468;SDS011;11401;50.792;4.352;2022-08-01T09:40:47;2.53;;;1.83;;
22468;SDS011;11401;50.792;4.352;2022-08-01T09:43:27;2.20;;;2.00;;
22468;SDS011;11401;50.792;4.352;2022-08-01T09:45:57;2.30;;;2.10;;
22468;SDS011;11401;50.792;4.352;2022-08-01T09:48:25;1.98;;;1.88;;
22468;SDS011;11401;50.792;4.352;2022-08-01T09:50:56;2.45;;;2.25;;
22468;SDS011;11401;50.792;4.352;2022-08-01T09:53:43;3.40;;;1.90;;
22468;SDS011;11401;50.792;4.352;2022-08-01T09:56:17;2.53;;;2.33;;
22468;SDS011;11401;50.792;4.352;2022-08-01T09:58:57;2.25;;;2.05;;
22468;SDS011;11401;50.792;4.352;2022-08-01T10:01:28;3.53;;;2.20;;
22468;SDS011;11401;50.792;4.352;2022-08-01T10:04:18;2.28;;;2.13;;
22468;SDS011;11401;50.792;4.352;2022-08-01T10:06:47;3.13;;;1.77;;
22468;SDS011;11401;50.792;4.352;2022-08-01T10:09:31;2.17;;;1.98;;
22468;SDS011;11401;50.792;4.352;2022-08-01T10:12:05;2.28;;;2.08;;
22468;SDS011;11401;50.792;4.352;2022-08-01T10:14:34;2.13;;;2.03;;
22468;SDS011;11401;50.792;4.352;2022-08-01T10:17:07;3.33;;;2.15;;
22468;SDS011;11401;50.792;4.352;2022-08-01T10:19:43;3.25;;;2.10;;
22468;SDS011;11401;50.792;4.352;2022-08-01T10:22:12;1.95;;;1.85;;
22468;SDS011;11401;50.792;4.352;2022-08-01T10:24:44;1.92;;;1.80;;
22468;SDS011;11401;50.792;4.352;2022-08-01T10:27:14;1.88;;;1.77;;
22468;SDS011;11401;50.792;4.352;2022-08-01T10:30:01;1.45;;;1.35;;
22468;SDS011;11401;50.792;4.352;2022-08-01T10:32:47;2.03;;;1.70;;
22468;SDS011;11401;50.792;4.352;2022-08-01T10:35:16;4.30;;;1.70;;
22468;SDS011;11401;50.792;4.352;2022-08-01T10:38:04;1.75;;;1.42;;
22468;SDS011;11401;50.792;4.352;2022-08-01T10:40:36;1.70;;;1.60;;
22468;SDS011;11401;50.792;4.352;2022-08-01T10:43:05;1.70;;;1.60;;
22468;SDS011;11401;50.792;4.352;2022-08-01T10:45:32;1.30;;;1.20;;
22468;SDS011;11401;50.792;4.352;2022-08-01T10:48:04;1.58;;;1.48;;
22468;SDS011;11401;50.792;4.352;2022-08-01T10:50:41;1.80;;;1.70;;
22468;SDS011;11401;50.792;4.352;2022-08-01T10:53:22;2.10;;;1.50;;
22468;SDS011;11401;50.792;4.352;2022-08-01T10:56:07;1.90;;;1.80;;
22468;SDS011;11401;50.792;4.352;2022-08-01T10:58:42;2.05;;;1.67;;
22468;SDS011;11401;50.792;4.352;2022-08-01T11:01:14;1.65;;;1.50;;
22468;SDS011;11401;50.792;4.352;2022-08-01T11:03:57;2.00;;;1.60;;
22468;SDS011;11401;50.792;4.352;2022-08-01T11:06:43;2.15;;;1.58;;
22468;SDS011;11401;50.792;4.352;2022-08-01T11:09:24;1.45;;;1.35;;
22468;SDS011;11401;50.792;4.352;2022-08-01T11:12:04;2.15;;;1.42;;
22468;SDS011;11401;50.792;4.352;2022-08-01T11:28:35;1.52;;;1.20;;
22468;SDS011;11401;50.792;4.352;2022-08-01T11:38:37;1.23;;;1.20;;
22468;SDS011;11401;50.792;4.352;2022-08-01T11:41:24;1.38;;;1.27;;
22468;SDS011;11401;50.792;4.352;2022-08-01T11:44:08;2.13;;;1.20;;
22468;SDS011;11401;50.792;4.352;2022-08-01T11:51:57;3.33;;;1.30;;
22468;SDS011;11401;50.792;4.352;2022-08-01T11:54:44;1.20;;;1.20;;
22468;SDS011;11401;50.792;4.352;2022-08-01T12:00:00;1.20;;;1.10;;
22468;SDS011;11401;50.792;4.352;2022-08-01T12:02:40;3.25;;;1.15;;
22468;SDS011;11401;50.792;4.352;2022-08-01T12:05:11;1.10;;;1.00;;
22468;SDS011;11401;50.792;4.352;2022-08-01T12:07:41;1.10;;;1.00;;
22468;SDS011;11401;50.792;4.352;2022-08-01T12:10:11;1.27;;;1.20;;
22468;SDS011;11401;50.792;4.352;2022-08-01T12:12:49;1.17;;;1.08;;
22468;SDS011;11401;50.792;4.352;2022-08-01T12:15:18;2.88;;;1.30;;
22468;SDS011;11401;50.792;4.352;2022-08-01T12:17:48;1.83;;;1.20;;
22468;SDS011;11401;50.792;4.352;2022-08-01T12:20:30;1.58;;;1.20;;
22468;SDS011;11401;50.792;4.352;2022-08-01T12:23:03;2.15;;;1.20;;
22468;SDS011;11401;50.792;4.352;2022-08-01T12:25:32;1.63;;;1.05;;
22468;SDS011;11401;50.792;4.352;2022-08-01T12:28:00;1.40;;;1.30;;
22468;SDS011;11401;50.792;4.352;2022-08-01T12:30:28;0.98;;;0.98;;
22468;SDS011;11401;50.792;4.352;2022-08-01T12:32:57;1.15;;;1.10;;
22468;SDS011;11401;50.792;4.352;2022-08-01T12:35:25;1.58;;;1.13;;
22468;SDS011;11401;50.792;4.352;2022-08-01T12:40:22;0.90;;;0.90;;
22468;SDS011;11401;50.792;4.352;2022-08-01T12:42:54;3.38;;;1.05;;
22468;SDS011;11401;50.792;4.352;2022-08-01T12:45:35;1.30;;;1.20;;
22468;SDS011;11401;50.792;4.352;2022-08-01T12:48:23;1.08;;;1.08;;
22468;SDS011;11401;50.792;4.352;2022-08-01T12:50:51;1.70;;;1.13;;
22468;SDS011;11401;50.792;4.352;2022-08-01T12:53:19;1.10;;;1.10;;
22468;SDS011;11401;50.792;4.352;2022-08-01T12:55:51;1.35;;;1.25;;
22468;SDS011;11401;50.792;4.352;2022-08-01T12:58:30;1.20;;;1.10;;
22468;SDS011;11401;50.792;4.352;2022-08-01T13:01:02;0.93;;;0.93;;
22468;SDS011;11401;50.792;4.352;2022-08-01T13:03:34;0.98;;;0.98;;
22468;SDS011;11401;50.792;4.352;2022-08-01T13:06:08;1.20;;;1.10;;
22468;SDS011;11401;50.792;4.352;2022-08-01T13:08:37;2.20;;;0.90;;
22468;SDS011;11401;50.792;4.352;2022-08-01T13:11:05;1.10;;;1.00;;
22468;SDS011;11401;50.792;4.352;2022-08-01T13:13:41;0.88;;;0.88;;
22468;SDS011;11401;50.792;4.352;2022-08-01T13:16:10;1.38;;;1.27;;
22468;SDS011;11401;50.792;4.352;2022-08-01T13:18:58;1.73;;;1.23;;
22468;SDS011;11401;50.792;4.352;2022-08-01T13:21:26;1.08;;;1.08;;
22468;SDS011;11401;50.792;4.352;2022-08-01T13:24:14;1.20;;;1.10;;
22468;SDS011;11401;50.792;4.352;2022-08-01T13:26:46;1.10;;;1.10;;
22468;SDS011;11401;50.792;4.352;2022-08-01T13:29:17;1.38;;;0.98;;
22468;SDS011;11401;50.792;4.352;2022-08-01T13:31:46;1.30;;;1.20;;
22468;SDS011;11401;50.792;4.352;2022-08-01T13:34:14;1.25;;;1.10;;
22468;SDS011;11401;50.792;4.352;2022-08-01T13:36:41;1.00;;;1.00;;
22468;SDS011;11401;50.792;4.352;2022-08-01T13:39:15;1.00;;;1.00;;
22468;SDS011;11401;50.792;4.352;2022-08-01T13:42:00;1.23;;;1.05;;
22468;SDS011;11401;50.792;4.352;2022-08-01T13:44:29;1.48;;;1.40;;
22468;SDS011;11401;50.792;4.352;2022-08-01T13:46:56;1.00;;;1.00;;
22468;SDS011;11401;50.792;4.352;2022-08-01T13:49:23;2.05;;;1.00;;
22468;SDS011;11401;50.792;4.352;2022-08-01T13:52:02;0.90;;;0.90;;
22468;SDS011;11401;50.792;4.352;2022-08-01T13:54:33;1.27;;;1.10;;
22468;SDS011;11401;50.792;4.352;2022-08-01T13:57:00;1.55;;;1.40;;
22468;SDS011;11401;50.792;4.352;2022-08-01T13:59:27;3.70;;;1.60;;
22468;SDS011;11401;50.792;4.352;2022-08-01T14:01:54;2.47;;;1.38;;
22468;SDS011;11401;50.792;4.352;2022-08-01T14:04:21;2.20;;;1.40;;
22468;SDS011;11401;50.792;4.352;2022-08-01T14:06:48;2.03;;;1.15;;
22468;SDS011;11401;50.792;4.352;2022-08-01T14:09:16;2.60;;;1.25;;
22468;SDS011;11401;50.792;4.352;2022-08-01T14:11:50;5.88;;;1.45;;
22468;SDS011;11401;50.792;4.352;2022-08-01T14:14:18;2.40;;;1.25;;
22468;SDS011;11401;50.792;4.352;2022-08-01T14:16:46;1.98;;;1.40;;
22468;SDS011;11401;50.792;4.352;2022-08-01T14:19:13;1.27;;;1.10;;
22468;SDS011;11401;50.792;4.352;2022-08-01T14:21:44;3.85;;;1.20;;
22468;SDS011;11401;50.792;4.352;2022-08-01T14:24:11;1.20;;;1.08;;
22468;SDS011;11401;50.792;4.352;2022-08-01T14:26:38;3.50;;;1.67;;
22468;SDS011;11401;50.792;4.352;2022-08-01T14:29:05;2.30;;;1.23;;
22468;SDS011;11401;50.792;4.352;2022-08-01T14:31:32;1.50;;;0.90;;
22468;SDS011;11401;50.792;4.352;2022-08-01T14:34:00;2.22;;;1.13;;
22468;SDS011;11401;50.792;4.352;2022-08-01T14:36:27;2.20;;;1.30;;
22468;SDS011;11401;50.792;4.352;2022-08-01T14:38:58;2.00;;;1.35;;
22468;SDS011;11401;50.792;4.352;2022-08-01T14:41:26;3.13;;;1.42;;
22468;SDS011;11401;50.792;4.352;2022-08-01T14:43:56;2.03;;;1.52;;
22468;SDS011;11401;50.792;4.352;2022-08-01T14:46:26;6.43;;;1.90;;
22468;SDS011;11401;50.792;4.352;2022-08-01T14:48:53;2.40;;;1.50;;
22468;SDS011;11401;50.792;4.352;2022-08-01T14:51:20;1.83;;;1.65;;
22468;SDS011;11401;50.792;4.352;2022-08-01T14:53:47;3.33;;;1.40;;
22468;SDS011;11401;50.792;4.352;2022-08-01T14:56:18;1.88;;;1.27;;
22468;SDS011;11401;50.792;4.352;2022-08-01T14:58:45;2.05;;;1.50;;
22468;SDS011;11401;50.792;4.352;2022-08-01T15:01:13;2.53;;;1.52;;
22468;SDS011;11401;50.792;4.352;2022-08-01T15:03:41;3.53;;;1.30;;
22468;SDS011;11401;50.792;4.352;2022-08-01T15:06:08;3.72;;;1.40;;
22468;SDS011;11401;50.792;4.352;2022-08-01T15:08:37;1.70;;;1.35;;
22468;SDS011;11401;50.792;4.352;2022-08-01T15:11:04;2.67;;;1.17;;
22468;SDS011;11401;50.792;4.352;2022-08-01T15:13:32;1.60;;;1.15;;
22468;SDS011;11401;50.792;4.352;2022-08-01T15:15:59;1.73;;;1.20;;
22468;SDS011;11401;50.792;4.352;2022-08-01T15:18:27;3.20;;;1.40;;
22468;SDS011;11401;50.792;4.352;2022-08-01T15:20:55;2.30;;;1.30;;
22468;SDS011;11401;50.792;4.352;2022-08-01T15:23:23;1.75;;;1.23;;
22468;SDS011;11401;50.792;4.352;2022-08-01T15:25:50;3.63;;;1.30;;
22468;SDS011;11401;50.792;4.352;2022-08-01T15:28:17;2.60;;;1.17;;
22468;SDS011;11401;50.792;4.352;2022-08-01T15:30:45;2.80;;;1.25;;
22468;SDS011;11401;50.792;4.352;2022-08-01T15:33:12;1.45;;;1.10;;
22468;SDS011;11401;50.792;4.352;2022-08-01T15:35:39;1.10;;;1.00;;
22468;SDS011;11401;50.792;4.352;2022-08-01T15:38:06;1.42;;;1.27;;
22468;SDS011;11401;50.792;4.352;2022-08-01T15:40:33;2.55;;;1.38;;
22468;SDS011;11401;50.792;4.352;2022-08-01T15:43:01;1.20;;;1.10;;
22468;SDS011;11401;50.792;4.352;2022-08-01T15:45:29;3.55;;;1.33;;
22468;SDS011;11401;50.792;4.352;2022-08-01T15:48:13;2.60;;;2.40;;
22468;SDS011;11401;50.792;4.352;2022-08-01T15:50:40;3.22;;;2.90;;
22468;SDS011;11401;50.792;4.352;2022-08-01T15:53:07;5.07;;;2.47;;